createdAt,value
2022-08-09T00:02:31.879Z,68.90
2022-08-09T00:05:03.437Z,68.70
2022-08-09T00:07:45.447Z,69.00
2022-08-09T00:10:21.076Z,69.20
2022-08-09T00:12:52.531Z,69.30
2022-08-09T00:15:26.371Z,69.30
2022-08-09T00:18:07.576Z,69.10
2022-08-09T00:20:42.411Z,69.30
2022-08-09T00:23:55.380Z,69.30
2022-08-09T00:26:05.850Z,69.30
2022-08-09T00:28:34.532Z,69.40
2022-08-09T00:31:30.694Z,69.40
2022-08-09T00:33:51.974Z,69.80
2022-08-09T00:36:19.715Z,69.70
2022-08-09T00:38:46.856Z,69.60
2022-08-09T00:44:13.489Z,69.80
2022-08-09T00:44:25.076Z,69.90
2022-08-09T00:46:57.489Z,69.90
2022-08-09T00:49:36.871Z,69.70
2022-08-09T00:52:06.314Z,69.70
2022-08-09T00:54:45.014Z,69.80
2022-08-09T00:57:12.112Z,70.10
2022-08-09T00:59:46.213Z,70.00
2022-08-09T01:02:24.311Z,70.00
2022-08-09T01:05:14.087Z,70.10
2022-08-09T01:08:08.788Z,70.30
2022-08-09T01:10:53.478Z,70.20
2022-08-09T01:13:31.202Z,70.20
2022-08-09T01:16:20.770Z,70.40
2022-08-09T01:19:02.019Z,71.50
2022-08-09T01:21:54.742Z,70.50
2022-08-09T01:24:52.155Z,70.50
2022-08-09T01:27:23.796Z,70.60
2022-08-09T01:30:28.688Z,70.80
2022-08-09T01:32:59.018Z,71.60
2022-08-09T01:35:38.877Z,70.80
2022-08-09T01:38:14.755Z,70.90
2022-08-09T01:40:53.033Z,71.10
2022-08-09T01:43:42.166Z,71.30
2022-08-09T01:46:26.873Z,71.20
2022-08-09T01:48:57.407Z,71.20
2022-08-09T01:51:32.550Z,71.20
2022-08-09T01:54:04.112Z,71.40
2022-08-09T01:56:32.318Z,71.40
2022-08-09T01:59:03.851Z,71.40
2022-08-09T02:01:58.070Z,71.40
2022-08-09T02:04:22.569Z,71.50
2022-08-09T02:07:15.584Z,71.40
2022-08-09T02:09:59.534Z,71.60
2022-08-09T02:12:28.993Z,71.80
2022-08-09T02:15:00.380Z,71.80
2022-08-09T02:18:00.684Z,71.70
2022-08-09T02:20:26.407Z,71.90
2022-08-09T02:23:25.802Z,71.80
2022-08-09T02:26:03.601Z,71.70
2022-08-09T02:28:30.199Z,71.90
2022-08-09T02:31:10.932Z,71.90
2022-08-09T02:34:07.330Z,72.00
2022-08-09T02:36:42.047Z,72.30
2022-08-09T02:39:14.607Z,72.30
2022-08-09T02:42:07.669Z,72.20
2022-08-09T02:44:42.625Z,72.00
2022-08-09T02:47:13.587Z,72.00
2022-08-09T02:49:43.438Z,72.00
2022-08-09T02:52:15.555Z,72.90
2022-08-09T02:54:54.687Z,72.30
2022-08-09T02:57:25.526Z,72.10
2022-08-09T03:00:25.249Z,72.00
2022-08-09T03:03:00.245Z,71.90
2022-08-09T03:05:29.156Z,72.20
2022-08-09T03:07:57.237Z,72.10
2022-08-09T03:10:26.076Z,72.30
2022-08-09T03:12:54.598Z,72.40
2022-08-09T03:15:23.446Z,72.50
2022-08-09T03:17:57.842Z,72.50
2022-08-09T03:20:29.661Z,72.90
2022-08-09T03:23:14.678Z,74.10
2022-08-09T03:25:57.964Z,75.00
2022-08-09T03:28:30.431Z,75.30
2022-08-09T03:30:57.889Z,74.70
2022-08-09T03:33:26.579Z,75.10
2022-08-09T03:36:16.834Z,76.90
2022-08-09T03:38:44.584Z,78.60
2022-08-09T03:41:15.567Z,78.30
2022-08-09T03:44:02.837Z,79.40
2022-08-09T03:46:34.752Z,80.00
2022-08-09T03:49:03.900Z,78.80
2022-08-09T03:51:55.062Z,79.60
2022-08-09T03:54:29.241Z,79.10
2022-08-09T03:56:59.087Z,80.30
2022-08-09T03:59:32.974Z,80.50
2022-08-09T04:02:10.548Z,79.10
2022-08-09T04:04:38.745Z,79.60
2022-08-09T04:07:06.475Z,78.50
2022-08-09T04:09:48.331Z,79.30
2022-08-09T04:12:36.381Z,78.70
2022-08-09T04:15:11.590Z,80.30
2022-08-09T04:17:44.995Z,78.50
2022-08-09T04:20:15.989Z,78.20
2022-08-09T04:22:44.617Z,78.00
2022-08-09T04:25:12.257Z,77.80
2022-08-09T04:27:49.032Z,78.00
2022-08-09T04:30:20.677Z,77.70
2022-08-09T04:32:50.955Z,77.60
2022-08-09T04:35:21.798Z,78.50
2022-08-09T04:37:49.693Z,77.20
2022-08-09T04:40:28.491Z,77.20
2022-08-09T04:43:03.584Z,77.30
2022-08-09T04:45:31.091Z,77.20
2022-08-09T04:48:09.827Z,77.10
2022-08-09T04:50:38.170Z,77.00
2022-08-09T04:53:13.010Z,77.00
2022-08-09T04:55:57.735Z,76.90
2022-08-09T04:58:32.993Z,76.80
2022-08-09T05:01:01.829Z,76.70
2022-08-09T05:03:40.077Z,76.80
2022-08-09T05:06:27.416Z,76.70
2022-08-09T05:09:00.763Z,76.90
2022-08-09T05:11:30.666Z,77.00
2022-08-09T05:13:59.068Z,77.00
2022-08-09T05:16:28.484Z,74.00
2022-08-09T05:19:00.113Z,73.30
2022-08-09T05:21:29.878Z,72.50
2022-08-09T05:24:01.628Z,70.50
2022-08-09T05:26:37.047Z,70.20
2022-08-09T05:29:21.814Z,71.40
2022-08-09T05:31:57.547Z,71.10
2022-08-09T05:34:31.128Z,70.40
2022-08-09T05:37:01.550Z,70.20
2022-08-09T05:39:35.808Z,69.20
2022-08-09T05:42:06.471Z,69.10
2022-08-09T05:44:34.949Z,69.10
2022-08-09T05:47:04.888Z,68.10
2022-08-09T05:50:31.885Z,68.00
2022-08-09T05:52:20.181Z,68.80
2022-08-09T05:54:49.171Z,69.00
2022-08-09T05:57:17.643Z,69.00
2022-08-09T05:59:46.142Z,67.90
2022-08-09T06:02:17.087Z,68.20
2022-08-09T06:04:45.867Z,68.20
2022-08-09T06:07:21.569Z,67.50
2022-08-09T06:09:54.643Z,67.90
2022-08-09T06:12:28.864Z,67.80
2022-08-09T06:14:56.998Z,68.10
2022-08-09T06:17:39.968Z,68.20
2022-08-09T06:20:08.244Z,69.60
2022-08-09T06:22:35.688Z,67.60
2022-08-09T06:25:03.412Z,68.60
2022-08-09T06:27:43.078Z,68.10
2022-08-09T06:30:17.076Z,67.80
2022-08-09T06:32:59.657Z,67.90
2022-08-09T06:35:56.093Z,66.30
2022-08-09T06:38:15.965Z,66.30
2022-08-09T06:40:43.129Z,67.00
2022-08-09T06:43:10.718Z,67.30
2022-08-09T06:46:06.056Z,67.80
2022-08-09T06:48:30.153Z,67.30
2022-08-09T06:50:58.979Z,67.00
2022-08-09T06:53:25.729Z,66.50
2022-08-09T06:55:53.221Z,66.60
2022-08-09T07:00:49.165Z,65.80
2022-08-09T07:01:08.025Z,66.30
2022-08-09T07:03:39.240Z,66.20
2022-08-09T07:06:06.933Z,66.80
2022-08-09T07:08:37.310Z,66.50
2022-08-09T07:11:06.831Z,65.10
2022-08-09T07:13:44.986Z,65.90
2022-08-09T07:16:42.390Z,65.60
2022-08-09T07:19:07.779Z,66.00
2022-08-09T07:21:34.606Z,65.70
2022-08-09T07:24:04.944Z,65.20
2022-08-09T07:26:31.917Z,65.40
2022-08-09T07:29:08.610Z,64.70
2022-08-09T07:31:46.104Z,64.80
2022-08-09T07:34:20.635Z,64.50
2022-08-09T07:36:49.096Z,64.30
2022-08-09T07:39:20.201Z,64.20
2022-08-09T07:42:02.918Z,63.20
2022-08-09T07:44:51.146Z,63.10
2022-08-09T07:47:19.573Z,63.20
2022-08-09T07:50:05.391Z,61.30
2022-08-09T07:52:35.666Z,61.70
2022-08-09T07:55:03.947Z,61.50
2022-08-09T07:57:36.323Z,61.90
2022-08-09T08:00:08.670Z,62.10
2022-08-09T08:02:36.647Z,60.50
2022-08-09T08:05:18.862Z,59.60
2022-08-09T08:08:44.113Z,60.60
2022-08-09T08:10:34.511Z,60.50
2022-08-09T08:13:03.829Z,58.70
2022-08-09T08:15:35.303Z,58.70
2022-08-09T08:18:04.567Z,58.70
2022-08-09T08:20:33.031Z,58.90
2022-08-09T08:23:06.653Z,59.20
2022-08-09T08:25:50.461Z,57.70
2022-08-09T08:28:33.215Z,56.40
2022-08-09T08:31:13.742Z,56.70
2022-08-09T08:33:52.849Z,57.60
2022-08-09T08:36:28.884Z,57.50
2022-08-09T08:38:56.700Z,57.90
2022-08-09T08:41:24.382Z,55.50
2022-08-09T08:44:07.029Z,54.90
2022-08-09T08:46:59.942Z,55.30
2022-08-09T08:49:38.627Z,55.30
2022-08-09T08:55:06.107Z,53.80
2022-08-09T08:57:35.317Z,53.20
2022-08-09T09:00:12.812Z,53.60
2022-08-09T09:02:52.761Z,52.50
2022-08-09T09:05:58.743Z,52.90
2022-08-09T09:08:31.042Z,53.20
2022-08-09T09:11:03.269Z,51.80
2022-08-09T09:13:47.392Z,50.20
2022-08-09T09:16:30.659Z,47.80
2022-08-09T09:19:36.785Z,47.40
2022-08-09T09:22:07.722Z,49.10
2022-08-09T09:24:44.973Z,49.70
2022-08-09T09:28:03.018Z,48.20
2022-08-09T09:30:37.329Z,47.60
2022-08-09T09:33:15.886Z,47.00
2022-08-09T09:36:02.277Z,43.60
2022-08-09T09:38:44.622Z,44.80
2022-08-09T09:41:49.105Z,45.00
2022-08-09T09:44:31.493Z,42.90
2022-08-09T09:47:10.742Z,43.50
2022-08-09T09:50:13.245Z,44.10
2022-08-09T09:52:37.028Z,42.80
2022-08-09T09:55:16.732Z,44.40
2022-08-09T09:58:03.080Z,43.60
2022-08-09T10:00:32.340Z,41.90
2022-08-09T10:03:11.946Z,43.40
2022-08-09T10:06:04.648Z,42.90
2022-08-09T10:08:32.175Z,43.10
2022-08-09T10:10:59.003Z,43.30
2022-08-09T10:13:43.150Z,43.30
2022-08-09T10:16:58.287Z,43.90
2022-08-09T10:19:01.380Z,44.60
2022-08-09T10:21:29.484Z,42.10
2022-08-09T10:23:57.900Z,43.00
2022-08-09T10:26:26.829Z,43.70
2022-08-09T10:29:21.450Z,43.10
2022-08-09T10:34:33.955Z,43.00
2022-08-09T10:37:02.796Z,43.60
2022-08-09T10:39:30.351Z,43.60
2022-08-09T10:42:08.410Z,43.30
2022-08-09T10:44:39.717Z,44.00
2022-08-09T10:48:19.328Z,43.80
2022-08-09T10:50:49.305Z,43.10
2022-08-09T10:53:54.585Z,43.10
2022-08-09T10:56:25.854Z,43.50
2022-08-09T10:58:54.838Z,44.10
2022-08-09T11:03:13.246Z,43.20
2022-08-09T11:04:30.260Z,43.00
2022-08-09T11:07:00.115Z,43.30
2022-08-09T11:09:41.213Z,44.10
2022-08-09T11:12:29.887Z,43.10
2022-08-09T11:15:20.421Z,41.00
2022-08-09T11:17:53.317Z,41.70
2022-08-09T11:20:49.573Z,42.10
2022-08-09T11:23:17.048Z,42.10
2022-08-09T11:25:51.054Z,40.80
2022-08-09T11:28:54.339Z,41.30
2022-08-09T11:31:52.925Z,41.80
2022-08-09T11:34:28.053Z,41.90
2022-08-09T11:36:56.728Z,42.00
2022-08-09T11:39:24.657Z,41.00
2022-08-09T11:41:53.682Z,41.20
2022-08-09T11:44:44.753Z,40.80
2022-08-09T11:47:14.597Z,40.40
2022-08-09T11:50:56.384Z,40.50
2022-08-09T11:53:16.010Z,40.30
2022-08-09T11:55:52.836Z,39.70
2022-08-09T11:58:32.417Z,40.40
2022-08-09T12:01:08.946Z,40.00
2022-08-09T12:03:55.228Z,39.30
2022-08-09T12:06:31.895Z,38.40
2022-08-09T12:09:01.191Z,39.10
2022-08-09T12:11:29.804Z,38.80
2022-08-09T12:14:37.070Z,37.60
2022-08-09T12:16:58.320Z,38.20
2022-08-09T12:19:30.445Z,39.20
2022-08-09T12:22:01.770Z,38.50
2022-08-09T12:24:29.725Z,38.30
2022-08-09T12:29:11.994Z,38.10
2022-08-09T12:30:01.947Z,37.80
2022-08-09T12:32:42.912Z,37.40
2022-08-09T12:35:13.175Z,37.00
2022-08-09T12:37:50.367Z,36.60
2022-08-09T12:40:21.215Z,36.70
2022-08-09T12:42:50.883Z,36.90
2022-08-09T12:45:33.854Z,37.00
2022-08-09T12:48:05.238Z,37.00
2022-08-09T12:50:36.033Z,36.90
2022-08-09T12:53:18.212Z,36.00
2022-08-09T12:56:13.814Z,36.00
2022-08-09T12:58:34.339Z,36.80
2022-08-09T13:01:26.765Z,37.10
2022-08-09T13:04:02.120Z,37.00
2022-08-09T13:06:34.306Z,36.40
2022-08-09T13:09:11.072Z,37.30
2022-08-09T13:11:46.864Z,36.90
2022-08-09T13:14:42.042Z,36.80
2022-08-09T13:17:14.113Z,37.30
2022-08-09T13:20:10.665Z,37.40
2022-08-09T13:22:45.481Z,36.50
2022-08-09T13:25:19.684Z,36.30
2022-08-09T13:27:54.361Z,35.30
2022-08-09T13:30:51.591Z,35.90
2022-08-09T13:33:22.474Z,36.00
2022-08-09T13:36:24.550Z,36.40
2022-08-09T13:38:55.577Z,37.20
2022-08-09T13:41:59.534Z,35.90
2022-08-09T13:44:13.800Z,36.40
2022-08-09T13:47:27.490Z,36.70
2022-08-09T13:49:38.074Z,36.50
2022-08-09T13:52:18.442Z,36.50
2022-08-09T13:55:00.115Z,36.70
2022-08-09T13:57:35.866Z,37.00
2022-08-09T14:00:12.539Z,37.00
2022-08-09T14:02:42.953Z,38.00
2022-08-09T14:06:00.376Z,38.10
2022-08-09T14:08:15.831Z,38.60
2022-08-09T14:10:49.097Z,38.80
2022-08-09T14:13:21.825Z,38.80
2022-08-09T14:16:09.941Z,39.00
2022-08-09T14:18:38.857Z,39.10
2022-08-09T14:21:11.118Z,39.60
2022-08-09T14:23:39.998Z,40.20
2022-08-09T14:26:13.721Z,40.70
2022-08-09T14:28:44.694Z,41.80
2022-08-09T14:31:11.416Z,43.20
2022-08-09T14:33:38.521Z,43.20
2022-08-09T14:36:19.777Z,43.40
2022-08-09T14:38:48.677Z,44.10
2022-08-09T14:41:34.797Z,44.30
2022-08-09T14:44:07.021Z,44.40
2022-08-09T14:46:57.243Z,44.20
2022-08-09T14:49:24.976Z,44.20
2022-08-09T14:51:51.906Z,45.00
2022-08-09T14:54:27.833Z,44.60
2022-08-09T14:56:58.148Z,44.70
2022-08-09T14:59:29.135Z,45.20
2022-08-09T15:01:57.393Z,46.20
2022-08-09T15:04:25.430Z,46.30
2022-08-09T15:06:52.229Z,46.70
2022-08-09T15:10:03.367Z,46.90
2022-08-09T15:12:08.189Z,47.00
2022-08-09T15:14:38.340Z,47.10
2022-08-09T15:17:09.483Z,47.30
2022-08-09T15:19:36.994Z,47.20
2022-08-09T15:22:22.014Z,47.50
2022-08-09T15:24:53.357Z,47.80
2022-08-09T15:27:20.374Z,47.60
2022-08-09T15:30:56.877Z,47.70
2022-08-09T15:32:34.300Z,47.80
2022-08-09T15:35:01.365Z,47.80
2022-08-09T15:37:38.129Z,47.90
2022-08-09T15:40:25.190Z,48.10
2022-08-09T15:42:58.529Z,48.00
2022-08-09T15:45:29.658Z,48.50
2022-08-09T15:48:05.462Z,48.10
2022-08-09T15:50:39.222Z,48.30
2022-08-09T15:53:17.952Z,48.10
2022-08-09T15:56:21.513Z,48.00
2022-08-09T15:58:47.172Z,48.00
2022-08-09T16:01:14.825Z,48.00
2022-08-09T16:03:42.048Z,48.10
2022-08-09T16:06:27.236Z,48.10
2022-08-09T16:09:00.969Z,48.30
2022-08-09T16:11:30.813Z,48.50
2022-08-09T16:14:04.781Z,48.80
2022-08-09T16:16:34.591Z,48.70
2022-08-09T16:19:04.972Z,48.80
2022-08-09T16:21:35.038Z,49.00
2022-08-09T16:24:03.098Z,48.90
2022-08-09T16:26:35.464Z,49.00
2022-08-09T16:29:11.166Z,49.10
2022-08-09T16:32:17.720Z,49.00
2022-08-09T16:34:55.005Z,49.00
2022-08-09T16:37:18.699Z,49.20
2022-08-09T16:39:54.730Z,49.30
2022-08-09T16:42:32.490Z,49.30
2022-08-09T16:45:01.369Z,49.50
2022-08-09T16:48:40.750Z,49.30
2022-08-09T16:50:29.422Z,49.50
2022-08-09T16:52:59.935Z,49.80
2022-08-09T16:55:26.668Z,50.00
2022-08-09T16:58:09.322Z,50.00
2022-08-09T17:00:38.767Z,49.90
2022-08-09T17:03:13.176Z,50.00
2022-08-09T17:06:07.278Z,50.10
2022-08-09T17:08:46.594Z,50.10
2022-08-09T17:11:40.632Z,50.30
2022-08-09T17:14:26.283Z,50.30
2022-08-09T17:16:55.769Z,50.30
2022-08-09T17:19:22.483Z,50.40
2022-08-09T17:21:54.647Z,50.60
2022-08-09T17:24:30.321Z,50.80
2022-08-09T17:26:58.322Z,50.80
2022-08-09T17:29:31.889Z,50.90
2022-08-09T17:32:05.122Z,50.90
2022-08-09T17:35:04.173Z,50.80
2022-08-09T17:37:19.750Z,51.10
2022-08-09T17:39:53.324Z,51.30
2022-08-09T17:42:51.268Z,51.40
2022-08-09T17:45:15.971Z,51.50
2022-08-09T17:47:55.888Z,51.80
2022-08-09T17:50:36.974Z,52.00
2022-08-09T17:53:19.215Z,51.90
2022-08-09T17:55:51.985Z,52.40
2022-08-09T17:58:27.415Z,52.20
2022-08-09T18:00:58.395Z,52.40
2022-08-09T18:03:26.402Z,52.70
2022-08-09T18:05:57.303Z,52.70
2022-08-09T18:08:28.123Z,52.80
2022-08-09T18:11:02.222Z,52.80
2022-08-09T18:13:43.703Z,53.10
2022-08-09T18:16:29.466Z,53.10
2022-08-09T18:18:59.292Z,53.70
2022-08-09T18:21:31.810Z,53.60
2022-08-09T18:24:14.274Z,53.70
2022-08-09T18:26:46.968Z,53.70
2022-08-09T18:30:42.690Z,54.00
2022-08-09T18:32:07.506Z,54.00
2022-08-09T18:34:36.368Z,54.30
2022-08-09T18:37:10.541Z,54.30
2022-08-09T18:39:53.736Z,54.20
2022-08-09T18:42:31.239Z,54.30
2022-08-09T18:45:00.818Z,54.20
2022-08-09T18:47:37.001Z,54.30
2022-08-09T18:50:06.125Z,54.40
2022-08-09T18:52:37.633Z,54.60
2022-08-09T18:55:06.193Z,54.90
2022-08-09T18:57:43.151Z,55.10
2022-08-09T19:00:16.640Z,55.20
2022-08-09T19:02:48.046Z,55.60
2022-08-09T19:05:28.843Z,55.50
2022-08-09T19:08:10.242Z,55.50
2022-08-09T19:10:40.003Z,55.80
2022-08-09T19:13:23.258Z,55.90
2022-08-09T19:15:58.743Z,55.90
2022-08-09T19:18:36.605Z,56.00
2022-08-09T19:21:09.106Z,56.00
2022-08-09T19:24:37.975Z,56.00
2022-08-09T19:26:31.437Z,56.20
2022-08-09T19:29:03.303Z,56.20
2022-08-09T19:31:44.962Z,56.10
2022-08-09T19:34:21.745Z,56.20
2022-08-09T19:36:50.974Z,56.10
2022-08-09T19:39:17.889Z,56.20
2022-08-09T19:41:48.709Z,56.00
2022-08-09T19:44:20.653Z,56.00
2022-08-09T19:46:50.963Z,55.90
2022-08-09T19:50:08.175Z,56.00
2022-08-09T19:52:08.428Z,56.00
2022-08-09T19:54:35.711Z,56.00
2022-08-09T19:57:02.948Z,56.00
2022-08-09T19:59:57.862Z,56.10
2022-08-09T20:04:12.489Z,56.20
2022-08-09T20:05:10.374Z,56.30
2022-08-09T20:07:59.249Z,56.30
2022-08-09T20:10:34.315Z,56.40
2022-08-09T20:13:04.834Z,56.40
2022-08-09T20:16:33.209Z,56.40
2022-08-09T20:18:18.842Z,56.50
2022-08-09T20:20:46.874Z,56.60
2022-08-09T20:23:13.825Z,56.70
2022-08-09T20:25:52.056Z,56.70
2022-08-09T20:28:34.432Z,56.70
2022-08-09T20:31:05.705Z,56.60
2022-08-09T20:33:39.164Z,56.80
2022-08-09T20:36:11.757Z,56.80
2022-08-09T20:39:18.841Z,57.00
2022-08-09T20:41:32.183Z,56.90
2022-08-09T20:44:02.739Z,57.00
2022-08-09T20:46:41.723Z,57.00
2022-08-09T20:49:11.198Z,57.10
2022-08-09T20:51:41.338Z,57.30
2022-08-09T20:54:12.547Z,57.30
2022-08-09T20:56:47.253Z,57.20
2022-08-09T20:59:17.534Z,57.40
2022-08-09T21:01:53.620Z,57.20
2022-08-09T21:05:51.828Z,57.20
2022-08-09T21:07:13.195Z,57.20
2022-08-09T21:09:56.183Z,57.20
2022-08-09T21:15:15.900Z,57.50
2022-08-09T21:18:21.018Z,57.30
2022-08-09T21:20:31.564Z,57.40
2022-08-09T21:22:59.650Z,57.70
2022-08-09T21:25:55.950Z,57.50
2022-08-09T21:28:34.811Z,57.60
2022-08-09T21:31:16.295Z,57.50
2022-08-09T21:33:50.880Z,57.60
2022-08-09T21:36:30.473Z,57.70
2022-08-09T21:38:59.595Z,57.80
2022-08-09T21:42:03.813Z,57.90
2022-08-09T21:44:33.461Z,58.00
2022-08-09T21:47:02.796Z,58.20
2022-08-09T21:49:39.553Z,58.40
2022-08-09T21:52:17.520Z,58.40
2022-08-09T21:54:56.812Z,58.50
2022-08-09T21:57:39.513Z,58.50
2022-08-09T22:00:25.836Z,58.50
2022-08-09T22:02:58.726Z,58.70
2022-08-09T22:05:35.478Z,58.80
2022-08-09T22:08:04.928Z,58.90
2022-08-09T22:10:31.744Z,58.90
2022-08-09T22:12:59.977Z,59.00
2022-08-09T22:15:35.293Z,59.00
2022-08-09T22:18:03.933Z,59.00
2022-08-09T22:20:31.530Z,59.00
2022-08-09T22:22:59.035Z,59.10
2022-08-09T22:26:08.430Z,59.20
2022-08-09T22:28:12.533Z,59.20
2022-08-09T22:30:41.818Z,59.40
2022-08-09T22:33:17.401Z,59.40
2022-08-09T22:36:00.654Z,59.40
2022-08-09T22:38:30.261Z,59.50
2022-08-09T22:40:58.525Z,59.60
2022-08-09T22:44:02.606Z,59.50
2022-08-09T22:48:12.785Z,59.60
2022-08-09T22:49:07.500Z,59.60
2022-08-09T22:51:38.351Z,59.60
2022-08-09T22:54:08.290Z,59.70
2022-08-09T22:56:41.512Z,59.70
2022-08-09T22:59:57.578Z,59.80
2022-08-09T23:01:56.293Z,59.80
2022-08-09T23:04:25.493Z,59.80
2022-08-09T23:07:13.912Z,59.80
2022-08-09T23:09:42.932Z,59.80
2022-08-09T23:12:09.667Z,60.00
2022-08-09T23:14:41.481Z,60.00
2022-08-09T23:17:08.509Z,60.20
2022-08-09T23:20:00.626Z,60.40
2022-08-09T23:22:22.104Z,60.50
2022-08-09T23:24:49.124Z,60.70
2022-08-09T23:27:16.289Z,60.70
2022-08-09T23:29:43.370Z,61.00
2022-08-09T23:32:10.193Z,61.00
2022-08-09T23:34:37.625Z,62.00
2022-08-09T23:37:04.822Z,61.10
2022-08-09T23:39:31.829Z,62.20
2022-08-09T23:41:58.778Z,61.70
2022-08-09T23:44:25.510Z,61.80
2022-08-09T23:46:57.831Z,62.00
2022-08-09T23:49:25.696Z,62.20
2022-08-09T23:51:53.244Z,62.20
2022-08-09T23:54:20.555Z,62.30
2022-08-09T23:56:54.873Z,62.30
2022-08-09T23:59:24.170Z,62.30
